VIDN

Details ICAO VIDN (DED)
Name DEHRADUN
Region India
Timezone Asia/Kolkata (UTC+5.5)
Plans Departing 5
Arriving 5
Stats Elevation 1,831 ft / 558 m (AMSL)
Location 30.189689° 78.180256°
Runways 1
Magnetic Variation 1.399° E
Sunrise 2017-01-24 01:43:06 UTC / 2017-01-24 07:13:06 Local
Sunset 2017-01-24 12:17:52 UTC / 2017-01-24 17:47:52 Local
Advertisement - Login to hide

Runways

ID Width Length Bearing (true) Bearing (mag) Surface Threshold Offset Overrun Length
08 88 ft / 27 m 3,673 ft / 1,119 m 79.66° 78.26° Asphalt 350 ft / 107 m 0 ft / 0 m
26 88 ft / 27 m 3,673 ft / 1,119 m 259.67° 258.27° Asphalt 500 ft / 152 m 0 ft / 0 m

Map

Weather

Temperature
Clouds and Precipitation
Forecast for 2017-01-24 06:00 UTC. Updated 2 hours ago
Winds

METAR

VIDN 240630Z 22003KT 5000 HZ BKN080 20/09 Q1021

TAF

Not found

Frequencies

Tower 122.30 MHz TWR
Warning: Do not use this data for real-world aviation or navigation. No guarantee of current accuracy is given.